This is the latest recevied weather packets stored in our database for station/object 5B4ALR-13. If no packets are shown the sender has not sent any weather packets the latest 1 day(s).
| Time | Temp. | Humidity | Pressure | Rain* | Wind** | Luminosity | Snow |
|---|---|---|---|---|---|---|---|
| 1836274388 | 23.33° C | 48% | 1014.3 hPa | 0 mm | 0 m/s | - | - |
| 1836274238 | 23.33° C | 49% | 1014.4 hPa | 0 mm | 0.45 m/s, 270° | - | - |
| 1778047267 | 22.78° C | 38% | 1016.7 hPa | 0 mm | 0 m/s | - | - |
| 1778046667 | 21.67° C | 40% | 1016.6 hPa | 0 mm | 0 m/s | - | - |
| 1778046067 | 23.33° C | 39% | 1016.7 hPa | 0 mm | 0 m/s | - | - |
| 1778045467 | 22.78° C | 40% | 1016.6 hPa | 0 mm | 0 m/s | - | - |
| 1778044867 | 22.22° C | 46% | 1016.6 hPa | 0 mm | 0 m/s | - | - |
| 1778044267 | 21.67° C | 47% | 1016.5 hPa | 0 mm | 0.45 m/s, 270° | - | - |
| 1778043667 | 21.11° C | 49% | 1016.4 hPa | 0 mm | 0 m/s | - | - |
| 1778043067 | 21.11° C | 51% | 1016.3 hPa | 0 mm | 0 m/s | - | - |
| 1778042467 | 21.11° C | 51% | 1016.3 hPa | 0 mm | 0 m/s | - | - |
| 1778041867 | 20° C | 53% | 1016.2 hPa | 0 mm | 0 m/s | - | - |
| 1778041267 | 20° C | 54% | 1016.1 hPa | 0 mm | 0 m/s | - | - |
| 1778040667 | 19.44° C | 55% | 1016 hPa | 0 mm | 0 m/s | - | - |
| 1778040067 | 18.33° C | 57% | 1015.9 hPa | 0 mm | 0 m/s | - | - |
| 1778039467 | 17.22° C | 59% | 1015.8 hPa | 0 mm | 0 m/s | - | - |
| 1778038867 | 16.67° C | 60% | 1015.7 hPa | 0 mm | 0 m/s | - | - |
| 1778038267 | 15.56° C | 63% | 1015.6 hPa | 0 mm | 0 m/s | - | - |
| 1778037667 | 14.44° C | 63% | 1015.4 hPa | 0 mm | 0 m/s | - | - |
| 1778037067 | 14.44° C | 63% | 1015.4 hPa | 0 mm | 0 m/s | - | - |
| 1778036467 | 14.44° C | 63% | 1015.4 hPa | 0 mm | 0 m/s | - | - |
| 1778035867 | 14.44° C | 63% | 1015.3 hPa | 0 mm | 0 m/s | - | - |
| 1778035267 | 14.44° C | 62% | 1015.2 hPa | 0 mm | 0.45 m/s, 247° | - | - |
| 1778034667 | 14.44° C | 62% | 1015.1 hPa | 0 mm | 0 m/s | - | - |
| 1778034067 | 14.44° C | 63% | 1015 hPa | 0 mm | 0 m/s | - | - |
* Rain latest hour (hover to see other rain measurements)
** Current wind speed in m/s (hover to see current wind gust speed)